Aérodrome :
LOGIN :

S'inscrire | Disclaimer

   EN    FR    IT 

 










Légende :    VFR   VFR Marginal   IFR   IFR Intensif   IFR Très Intensif
Visi : 
Plafond : 
>= 8 km
>= 3000ft
5 à 8 km
1000 à 3000 ft
1500m à 5 km
500 à 1000 ft
800 à 1500m
200 à 500 ft
< 800m
< 200 ft
Symboles :   Orages  Brouillard  Fortes neiges  Fortes précipitations  Vent > 20 kt
SIGMETs :   Divers  Orages  Givrage  Turbulence  Onde Orograph.  Cendres Volcan.






- Altitude de l'aérodrome : 309 ft
- Code IATA : FNI


LFTW - Nîmes Garons

DERNIER METAR :
  • 280800Z AUTO VRB03KT CAVOK 22/13 Q1026 NOSIG

METARs EXPIRÉS :
  • 280730Z AUTO 04004KT 350V100 CAVOK 20/15 Q1026 NOSIG
  • 280700Z AUTO VRB03KT CAVOK 20/15 Q1026 NOSIG
  • 280630Z AUTO 05003KT 020V080 CAVOK 18/14 Q1026 NOSIG
  • 280600Z AUTO 06003KT 030V100 CAVOK 17/15 Q1026 NOSIG
  • 280530Z AUTO VRB02KT CAVOK 16/14 Q1026 NOSIG

TAF TAF LFTW
Valide du 28 à 03h jusqu'au 29 à 03h UTC


280200Z 2803/2903 VRB03KT CAVOK
PROB30
TEMPO 2803/2804 1500 BR BKN012
BECMG 2812/2815 24015G25KT
BECMG 2818/2821 36008KT



MET'MAP, la Météo Aéronautique d'un coup d'oeil ! - Copyright ORBIFLY Décembre 2007 - Disclaimer

ORBIFLY MET'MAP TEAM :

Programmation & Développement : Alexandra Zaïnal
Sur une idée originale de : Baudouin d'Aumeries
Assistance à la programmation : Marc-Olivier Méhu
Soutien technique & logistique : Manuel Goepfert

Contact : metmap@orbifly.com




SOURCES & CREDITS :

   NOAA